sensor_id;sensor_type;location;lat;lon;timestamp;pressure;altitude;pressure_sealevel;temperature
67353;BMP180;54238;52.278;21.056;2023-03-13T00:03:43;99871.20;;;2.10
67353;BMP180;54238;52.278;21.056;2023-03-13T00:06:16;99872.60;;;2.10
67353;BMP180;54238;52.278;21.056;2023-03-13T00:08:48;99871.20;;;2.10
67353;BMP180;54238;52.278;21.056;2023-03-13T00:11:17;99870.40;;;2.10
67353;BMP180;54238;52.278;21.056;2023-03-13T00:13:52;99864.40;;;2.12
67353;BMP180;54238;52.278;21.056;2023-03-13T00:16:25;99865.60;;;2.12
67353;BMP180;54238;52.278;21.056;2023-03-13T00:18:59;99862.20;;;2.16
67353;BMP180;54238;52.278;21.056;2023-03-13T00:21:29;99863.00;;;2.20
67353;BMP180;54238;52.278;21.056;2023-03-13T00:24:02;99862.40;;;2.20
67353;BMP180;54238;52.278;21.056;2023-03-13T00:26:33;99864.40;;;2.20
67353;BMP180;54238;52.278;21.056;2023-03-13T00:29:02;99865.00;;;2.20
67353;BMP180;54238;52.278;21.056;2023-03-13T00:31:35;99859.60;;;2.26
67353;BMP180;54238;52.278;21.056;2023-03-13T00:34:03;99862.60;;;2.30
67353;BMP180;54238;52.278;21.056;2023-03-13T00:37:05;99860.40;;;2.30
67353;BMP180;54238;52.278;21.056;2023-03-13T00:39:35;99864.60;;;2.30
67353;BMP180;54238;52.278;21.056;2023-03-13T00:42:02;99863.60;;;2.30
67353;BMP180;54238;52.278;21.056;2023-03-13T00:44:32;99866.20;;;2.40
67353;BMP180;54238;52.278;21.056;2023-03-13T00:47:01;99866.40;;;2.40
67353;BMP180;54238;52.278;21.056;2023-03-13T00:49:31;99862.60;;;2.48
67353;BMP180;54238;52.278;21.056;2023-03-13T00:52:00;99864.80;;;2.50
67353;BMP180;54238;52.278;21.056;2023-03-13T00:54:32;99863.80;;;2.50
67353;BMP180;54238;52.278;21.056;2023-03-13T00:57:02;99867.00;;;2.60
67353;BMP180;54238;52.278;21.056;2023-03-13T00:59:30;99873.40;;;2.62
67353;BMP180;54238;52.278;21.056;2023-03-13T01:02:06;99867.20;;;2.70
67353;BMP180;54238;52.278;21.056;2023-03-13T01:04:36;99864.60;;;2.74
67353;BMP180;54238;52.278;21.056;2023-03-13T01:07:07;99854.80;;;2.80
67353;BMP180;54238;52.278;21.056;2023-03-13T01:11:13;99849.00;;;2.90
67353;BMP180;54238;52.278;21.056;2023-03-13T01:13:43;99846.40;;;2.92
67353;BMP180;54238;52.278;21.056;2023-03-13T01:16:19;99838.60;;;3.00
67353;BMP180;54238;52.278;21.056;2023-03-13T01:18:51;99830.60;;;3.06
67353;BMP180;54238;52.278;21.056;2023-03-13T01:21:22;99825.80;;;3.10
67353;BMP180;54238;52.278;21.056;2023-03-13T01:23:53;99825.80;;;3.10
67353;BMP180;54238;52.278;21.056;2023-03-13T01:26:24;99820.40;;;3.20
67353;BMP180;54238;52.278;21.056;2023-03-13T01:28:52;99819.20;;;3.20
67353;BMP180;54238;52.278;21.056;2023-03-13T01:31:27;99817.20;;;3.20
67353;BMP180;54238;52.278;21.056;2023-03-13T01:34:02;99810.60;;;3.22
67353;BMP180;54238;52.278;21.056;2023-03-13T01:36:33;99808.20;;;3.20
67353;BMP180;54238;52.278;21.056;2023-03-13T01:39:07;99815.40;;;3.20
67353;BMP180;54238;52.278;21.056;2023-03-13T01:41:36;99807.60;;;3.20
67353;BMP180;54238;52.278;21.056;2023-03-13T01:44:08;99804.60;;;3.20
67353;BMP180;54238;52.278;21.056;2023-03-13T01:46:44;99796.60;;;3.20
67353;BMP180;54238;52.278;21.056;2023-03-13T01:49:28;99792.40;;;3.20
67353;BMP180;54238;52.278;21.056;2023-03-13T01:52:06;99782.00;;;3.10
67353;BMP180;54238;52.278;21.056;2023-03-13T01:54:48;99780.80;;;3.10
67353;BMP180;54238;52.278;21.056;2023-03-13T01:57:26;99772.20;;;3.00
67353;BMP180;54238;52.278;21.056;2023-03-13T02:00:10;99767.80;;;2.98
67353;BMP180;54238;52.278;21.056;2023-03-13T02:02:51;99765.60;;;2.90
67353;BMP180;54238;52.278;21.056;2023-03-13T02:05:24;99768.60;;;2.90
67353;BMP180;54238;52.278;21.056;2023-03-13T02:08:11;99766.80;;;2.90
67353;BMP180;54238;52.278;21.056;2023-03-13T02:10:55;99769.40;;;2.80
67353;BMP180;54238;52.278;21.056;2023-03-13T02:13:28;99765.80;;;2.80
67353;BMP180;54238;52.278;21.056;2023-03-13T02:15:55;99768.40;;;2.82
67353;BMP180;54238;52.278;21.056;2023-03-13T02:18:23;99765.60;;;2.80
67353;BMP180;54238;52.278;21.056;2023-03-13T02:21:01;99766.20;;;2.84
67353;BMP180;54238;52.278;21.056;2023-03-13T02:23:44;99765.80;;;2.80
67353;BMP180;54238;52.278;21.056;2023-03-13T02:26:21;99774.60;;;2.82
67353;BMP180;54238;52.278;21.056;2023-03-13T02:28:52;99769.40;;;2.80
67353;BMP180;54238;52.278;21.056;2023-03-13T02:31:29;99767.60;;;2.80
67353;BMP180;54238;52.278;21.056;2023-03-13T02:34:00;99753.80;;;2.80
67353;BMP180;54238;52.278;21.056;2023-03-13T02:36:30;99761.80;;;2.90
67353;BMP180;54238;52.278;21.056;2023-03-13T02:39:03;99763.20;;;2.90
67353;BMP180;54238;52.278;21.056;2023-03-13T02:41:34;99766.40;;;2.90
67353;BMP180;54238;52.278;21.056;2023-03-13T02:44:03;99759.00;;;2.90
67353;BMP180;54238;52.278;21.056;2023-03-13T02:46:48;99755.00;;;2.90
67353;BMP180;54238;52.278;21.056;2023-03-13T02:49:25;99754.40;;;2.90
67353;BMP180;54238;52.278;21.056;2023-03-13T02:52:02;99759.00;;;2.90
67353;BMP180;54238;52.278;21.056;2023-03-13T02:54:39;99764.20;;;2.90
67353;BMP180;54238;52.278;21.056;2023-03-13T02:57:07;99765.20;;;2.90
67353;BMP180;54238;52.278;21.056;2023-03-13T02:59:37;99756.80;;;2.90
67353;BMP180;54238;52.278;21.056;2023-03-13T03:02:06;99759.20;;;2.90
67353;BMP180;54238;52.278;21.056;2023-03-13T03:04:39;99762.40;;;2.90
67353;BMP180;54238;52.278;21.056;2023-03-13T03:07:08;99768.00;;;2.90
67353;BMP180;54238;52.278;21.056;2023-03-13T03:09:40;99765.80;;;2.90
67353;BMP180;54238;52.278;21.056;2023-03-13T03:12:12;99765.40;;;2.90
67353;BMP180;54238;52.278;21.056;2023-03-13T03:14:39;99768.00;;;2.90
67353;BMP180;54238;52.278;21.056;2023-03-13T03:17:11;99767.00;;;2.90
67353;BMP180;54238;52.278;21.056;2023-03-13T03:19:43;99761.60;;;2.90
67353;BMP180;54238;52.278;21.056;2023-03-13T03:22:12;99759.60;;;2.90
67353;BMP180;54238;52.278;21.056;2023-03-13T03:24:39;99752.80;;;2.90
67353;BMP180;54238;52.278;21.056;2023-03-13T03:27:09;99758.00;;;2.90
67353;BMP180;54238;52.278;21.056;2023-03-13T03:29:39;99758.40;;;2.90
67353;BMP180;54238;52.278;21.056;2023-03-13T03:32:08;99756.60;;;2.90
67353;BMP180;54238;52.278;21.056;2023-03-13T03:34:35;99756.20;;;2.90
67353;BMP180;54238;52.278;21.056;2023-03-13T03:37:02;99755.60;;;3.00
67353;BMP180;54238;52.278;21.056;2023-03-13T03:39:29;99751.20;;;2.90
67353;BMP180;54238;52.278;21.056;2023-03-13T03:41:56;99759.40;;;2.90
67353;BMP180;54238;52.278;21.056;2023-03-13T03:44:24;99752.80;;;2.90
67353;BMP180;54238;52.278;21.056;2023-03-13T03:46:53;99749.60;;;2.90
67353;BMP180;54238;52.278;21.056;2023-03-13T03:49:22;99753.00;;;2.90
67353;BMP180;54238;52.278;21.056;2023-03-13T03:51:54;99751.40;;;2.90
67353;BMP180;54238;52.278;21.056;2023-03-13T03:54:23;99747.60;;;2.94
67353;BMP180;54238;52.278;21.056;2023-03-13T03:56:55;99745.00;;;2.92
67353;BMP180;54238;52.278;21.056;2023-03-13T03:59:30;99737.40;;;2.90
67353;BMP180;54238;52.278;21.056;2023-03-13T04:02:01;99730.60;;;2.90
67353;BMP180;54238;52.278;21.056;2023-03-13T04:04:29;99726.40;;;2.90
67353;BMP180;54238;52.278;21.056;2023-03-13T04:06:56;99727.60;;;2.90
67353;BMP180;54238;52.278;21.056;2023-03-13T04:09:25;99723.00;;;2.96
67353;BMP180;54238;52.278;21.056;2023-03-13T04:11:57;99720.00;;;3.00
67353;BMP180;54238;52.278;21.056;2023-03-13T04:14:24;99722.40;;;3.00
67353;BMP180;54238;52.278;21.056;2023-03-13T04:16:51;99712.80;;;3.00
67353;BMP180;54238;52.278;21.056;2023-03-13T04:19:20;99719.20;;;3.00
67353;BMP180;54238;52.278;21.056;2023-03-13T04:21:52;99721.20;;;3.00
67353;BMP180;54238;52.278;21.056;2023-03-13T04:24:19;99723.60;;;3.00
67353;BMP180;54238;52.278;21.056;2023-03-13T04:26:51;99722.60;;;3.00
67353;BMP180;54238;52.278;21.056;2023-03-13T04:29:20;99710.00;;;3.00
67353;BMP180;54238;52.278;21.056;2023-03-13T04:31:50;99708.80;;;2.96
67353;BMP180;54238;52.278;21.056;2023-03-13T04:34:19;99701.40;;;2.90
67353;BMP180;54238;52.278;21.056;2023-03-13T04:36:49;99698.80;;;2.92
67353;BMP180;54238;52.278;21.056;2023-03-13T04:39:22;99694.00;;;2.90
67353;BMP180;54238;52.278;21.056;2023-03-13T04:41:59;99694.20;;;2.90
67353;BMP180;54238;52.278;21.056;2023-03-13T04:44:31;99690.60;;;2.90
67353;BMP180;54238;52.278;21.056;2023-03-13T04:46:59;99690.20;;;2.90
67353;BMP180;54238;52.278;21.056;2023-03-13T04:49:31;99687.60;;;2.90
67353;BMP180;54238;52.278;21.056;2023-03-13T04:51:58;99698.00;;;2.90
67353;BMP180;54238;52.278;21.056;2023-03-13T04:54:28;99687.20;;;2.90
67353;BMP180;54238;52.278;21.056;2023-03-13T04:56:57;99685.60;;;2.90
67353;BMP180;54238;52.278;21.056;2023-03-13T04:59:24;99688.60;;;2.90
67353;BMP180;54238;52.278;21.056;2023-03-13T05:01:54;99688.00;;;2.90
67353;BMP180;54238;52.278;21.056;2023-03-13T05:04:23;99689.80;;;2.86
67353;BMP180;54238;52.278;21.056;2023-03-13T05:06:50;99681.20;;;2.80
67353;BMP180;54238;52.278;21.056;2023-03-13T05:09:20;99684.60;;;2.80
67353;BMP180;54238;52.278;21.056;2023-03-13T05:11:49;99672.60;;;2.80
67353;BMP180;54238;52.278;21.056;2023-03-13T05:14:16;99673.20;;;2.80
67353;BMP180;54238;52.278;21.056;2023-03-13T05:16:45;99679.20;;;2.80
67353;BMP180;54238;52.278;21.056;2023-03-13T05:19:12;99667.80;;;2.80
67353;BMP180;54238;52.278;21.056;2023-03-13T05:21:40;99665.40;;;2.80
67353;BMP180;54238;52.278;21.056;2023-03-13T05:24:09;99666.80;;;2.80
67353;BMP180;54238;52.278;21.056;2023-03-13T05:26:36;99672.00;;;2.84
67353;BMP180;54238;52.278;21.056;2023-03-13T05:40:10;99666.20;;;3.00
67353;BMP180;54238;52.278;21.056;2023-03-13T05:42:40;99674.40;;;3.02
67353;BMP180;54238;52.278;21.056;2023-03-13T05:45:08;99665.40;;;3.10
67353;BMP180;54238;52.278;21.056;2023-03-13T05:47:35;99677.80;;;3.10
67353;BMP180;54238;52.278;21.056;2023-03-13T05:50:07;99681.40;;;3.10
67353;BMP180;54238;52.278;21.056;2023-03-13T05:52:34;99680.40;;;3.16
67353;BMP180;54238;52.278;21.056;2023-03-13T05:55:04;99686.20;;;3.20
67353;BMP180;54238;52.278;21.056;2023-03-13T05:57:33;99696.60;;;3.18
67353;BMP180;54238;52.278;21.056;2023-03-13T05:59:59;99683.00;;;3.14
67353;BMP180;54238;52.278;21.056;2023-03-13T06:02:31;99685.60;;;3.14
67353;BMP180;54238;52.278;21.056;2023-03-13T06:05:07;99687.80;;;3.16
67353;BMP180;54238;52.278;21.056;2023-03-13T06:07:39;99672.80;;;3.16
67353;BMP180;54238;52.278;21.056;2023-03-13T06:10:09;99667.00;;;3.16
67353;BMP180;54238;52.278;21.056;2023-03-13T06:12:35;99672.00;;;3.20
67353;BMP180;54238;52.278;21.056;2023-03-13T06:15:07;99670.40;;;3.20
67353;BMP180;54238;52.278;21.056;2023-03-13T06:17:40;99670.20;;;3.20
67353;BMP180;54238;52.278;21.056;2023-03-13T06:20:07;99664.20;;;3.20
67353;BMP180;54238;52.278;21.056;2023-03-13T06:22:41;99671.20;;;3.30
67353;BMP180;54238;52.278;21.056;2023-03-13T06:25:08;99654.40;;;3.30
67353;BMP180;54238;52.278;21.056;2023-03-13T06:27:35;99661.80;;;3.30
67353;BMP180;54238;52.278;21.056;2023-03-13T06:30:08;99657.00;;;3.30
67353;BMP180;54238;52.278;21.056;2023-03-13T06:32:35;99657.80;;;3.34
67353;BMP180;54238;52.278;21.056;2023-03-13T06:35:05;99661.20;;;3.40
67353;BMP180;54238;52.278;21.056;2023-03-13T06:37:34;99666.00;;;3.40
67353;BMP180;54238;52.278;21.056;2023-03-13T06:40:09;99660.80;;;3.40
67353;BMP180;54238;52.278;21.056;2023-03-13T06:42:36;99662.40;;;3.40
67353;BMP180;54238;52.278;21.056;2023-03-13T06:45:09;99661.00;;;3.40
67353;BMP180;54238;52.278;21.056;2023-03-13T06:47:35;99667.80;;;3.44
67353;BMP180;54238;52.278;21.056;2023-03-13T06:50:08;99662.60;;;3.50
67353;BMP180;54238;52.278;21.056;2023-03-13T06:52:34;99658.40;;;3.50
67353;BMP180;54238;52.278;21.056;2023-03-13T06:55:07;99652.20;;;3.50
67353;BMP180;54238;52.278;21.056;2023-03-13T06:57:34;99658.60;;;3.50
67353;BMP180;54238;52.278;21.056;2023-03-13T07:00:03;99654.00;;;3.52
67353;BMP180;54238;52.278;21.056;2023-03-13T07:02:33;99651.00;;;3.60
67353;BMP180;54238;52.278;21.056;2023-03-13T07:05:06;99652.60;;;3.60
67353;BMP180;54238;52.278;21.056;2023-03-13T07:07:37;99652.20;;;3.60
67353;BMP180;54238;52.278;21.056;2023-03-13T07:10:10;99648.00;;;3.60
67353;BMP180;54238;52.278;21.056;2023-03-13T07:12:37;99645.40;;;3.60
67353;BMP180;54238;52.278;21.056;2023-03-13T07:15:09;99647.00;;;3.60
67353;BMP180;54238;52.278;21.056;2023-03-13T07:17:39;99642.20;;;3.60
67353;BMP180;54238;52.278;21.056;2023-03-13T07:20:09;99640.20;;;3.60
67353;BMP180;54238;52.278;21.056;2023-03-13T07:22:42;99641.20;;;3.70
67353;BMP180;54238;52.278;21.056;2023-03-13T07:25:09;99641.60;;;3.70
67353;BMP180;54238;52.278;21.056;2023-03-13T07:27:35;99646.00;;;3.70
67353;BMP180;54238;52.278;21.056;2023-03-13T07:30:09;99642.60;;;3.74
67353;BMP180;54238;52.278;21.056;2023-03-13T07:32:35;99643.20;;;3.80
67353;BMP180;54238;52.278;21.056;2023-03-13T07:35:02;99636.00;;;3.90
67353;BMP180;54238;52.278;21.056;2023-03-13T07:37:30;99635.80;;;3.90
67353;BMP180;54238;52.278;21.056;2023-03-13T07:40:00;99629.20;;;3.90
67353;BMP180;54238;52.278;21.056;2023-03-13T07:42:32;99621.80;;;4.00
67353;BMP180;54238;52.278;21.056;2023-03-13T07:45:03;99627.20;;;4.00
67353;BMP180;54238;52.278;21.056;2023-03-13T07:47:33;99623.40;;;4.10
67353;BMP180;54238;52.278;21.056;2023-03-13T07:50:02;99628.40;;;4.20
67353;BMP180;54238;52.278;21.056;2023-03-13T07:52:31;99626.20;;;4.22
67353;BMP180;54238;52.278;21.056;2023-03-13T07:54:58;99618.60;;;4.30
67353;BMP180;54238;52.278;21.056;2023-03-13T07:57:26;99619.00;;;4.40
67353;BMP180;54238;52.278;21.056;2023-03-13T07:59:55;99612.00;;;4.50
67353;BMP180;54238;52.278;21.056;2023-03-13T08:02:23;99614.80;;;4.68
67353;BMP180;54238;52.278;21.056;2023-03-13T08:04:53;99611.20;;;4.80
67353;BMP180;54238;52.278;21.056;2023-03-13T08:07:21;99609.00;;;4.90
67353;BMP180;54238;52.278;21.056;2023-03-13T08:09:52;99611.60;;;5.00
67353;BMP180;54238;52.278;21.056;2023-03-13T08:12:21;99604.40;;;5.02
67353;BMP180;54238;52.278;21.056;2023-03-13T08:14:47;99600.20;;;5.10
67353;BMP180;54238;52.278;21.056;2023-03-13T08:17:18;99601.80;;;5.20
67353;BMP180;54238;52.278;21.056;2023-03-13T08:19:45;99597.80;;;5.30
67353;BMP180;54238;52.278;21.056;2023-03-13T08:22:11;99607.00;;;5.40
67353;BMP180;54238;52.278;21.056;2023-03-13T08:24:42;99596.60;;;5.50
67353;BMP180;54238;52.278;21.056;2023-03-13T08:27:13;99602.80;;;5.58
67353;BMP180;54238;52.278;21.056;2023-03-13T08:29:42;99603.80;;;5.60
67353;BMP180;54238;52.278;21.056;2023-03-13T08:32:09;99609.00;;;5.70
67353;BMP180;54238;52.278;21.056;2023-03-13T08:34:37;99612.80;;;5.70
67353;BMP180;54238;52.278;21.056;2023-03-13T08:37:08;99603.00;;;5.70
67353;BMP180;54238;52.278;21.056;2023-03-13T08:39:37;99604.20;;;5.72
67353;BMP180;54238;52.278;21.056;2023-03-13T08:42:09;99595.60;;;5.80
67353;BMP180;54238;52.278;21.056;2023-03-13T08:44:39;99596.60;;;5.80
67353;BMP180;54238;52.278;21.056;2023-03-13T08:47:08;99597.60;;;5.80
67353;BMP180;54238;52.278;21.056;2023-03-13T08:49:34;99597.40;;;5.80
67353;BMP180;54238;52.278;21.056;2023-03-13T08:52:06;99586.80;;;5.88
67353;BMP180;54238;52.278;21.056;2023-03-13T08:54:33;99582.80;;;5.90
67353;BMP180;54238;52.278;21.056;2023-03-13T08:56:59;99578.80;;;6.00
67353;BMP180;54238;52.278;21.056;2023-03-13T08:59:28;99570.40;;;6.00
67353;BMP180;54238;52.278;21.056;2023-03-13T09:01:59;99561.20;;;6.10
67353;BMP180;54238;52.278;21.056;2023-03-13T09:04:26;99549.80;;;6.16
67353;BMP180;54238;52.278;21.056;2023-03-13T09:06:55;99543.20;;;6.26
67353;BMP180;54238;52.278;21.056;2023-03-13T09:09:21;99540.40;;;6.40
67353;BMP180;54238;52.278;21.056;2023-03-13T09:11:50;99538.80;;;6.60
67353;BMP180;54238;52.278;21.056;2023-03-13T09:14:21;99538.60;;;6.86
67353;BMP180;54238;52.278;21.056;2023-03-13T09:16:52;99535.40;;;7.10
67353;BMP180;54238;52.278;21.056;2023-03-13T09:19:19;99529.40;;;7.30
67353;BMP180;54238;52.278;21.056;2023-03-13T09:21:48;99522.00;;;7.50
67353;BMP180;54238;52.278;21.056;2023-03-13T09:24:14;99518.80;;;7.70
67353;BMP180;54238;52.278;21.056;2023-03-13T09:26:41;99510.00;;;7.90
67353;BMP180;54238;52.278;21.056;2023-03-13T09:29:12;99513.60;;;8.08
67353;BMP180;54238;52.278;21.056;2023-03-13T09:31:41;99507.40;;;8.30
67353;BMP180;54238;52.278;21.056;2023-03-13T09:34:10;99505.40;;;8.50
67353;BMP180;54238;52.278;21.056;2023-03-13T09:36:36;99504.20;;;8.70
67353;BMP180;54238;52.278;21.056;2023-03-13T09:39:05;99500.60;;;8.96
67353;BMP180;54238;52.278;21.056;2023-03-13T09:44:26;99492.60;;;9.30
67353;BMP180;54238;52.278;21.056;2023-03-13T09:47:29;99490.20;;;9.50
67353;BMP180;54238;52.278;21.056;2023-03-13T09:50:11;99492.60;;;9.70
67353;BMP180;54238;52.278;21.056;2023-03-13T09:52:42;99496.60;;;9.80
67353;BMP180;54238;52.278;21.056;2023-03-13T09:58:01;99485.00;;;10.20
67353;BMP180;54238;52.278;21.056;2023-03-13T10:01:00;99472.60;;;10.30
67353;BMP180;54238;52.278;21.056;2023-03-13T10:03:37;99471.60;;;10.40
67353;BMP180;54238;52.278;21.056;2023-03-13T10:06:22;99471.00;;;10.50
67353;BMP180;54238;52.278;21.056;2023-03-13T10:08:50;99460.60;;;10.62
67353;BMP180;54238;52.278;21.056;2023-03-13T10:11:34;99462.80;;;10.70
67353;BMP180;54238;52.278;21.056;2023-03-13T10:14:29;99460.60;;;10.80
67353;BMP180;54238;52.278;21.056;2023-03-13T10:17:53;99461.40;;;10.90
67353;BMP180;54238;52.278;21.056;2023-03-13T10:20:34;99457.60;;;10.90
67353;BMP180;54238;52.278;21.056;2023-03-13T10:23:13;99453.40;;;10.90
67353;BMP180;54238;52.278;21.056;2023-03-13T10:25:40;99456.80;;;10.92
67353;BMP180;54238;52.278;21.056;2023-03-13T10:28:14;99448.40;;;10.90
67353;BMP180;54238;52.278;21.056;2023-03-13T10:31:11;99466.20;;;10.90
67353;BMP180;54238;52.278;21.056;2023-03-13T10:33:41;99462.20;;;10.90
67353;BMP180;54238;52.278;21.056;2023-03-13T10:36:12;99453.20;;;10.90
67353;BMP180;54238;52.278;21.056;2023-03-13T10:38:53;99463.40;;;10.90
67353;BMP180;54238;52.278;21.056;2023-03-13T10:44:04;99456.00;;;10.80
67353;BMP180;54238;52.278;21.056;2023-03-13T10:46:41;99437.40;;;10.82
67353;BMP180;54238;52.278;21.056;2023-03-13T10:49:19;99444.40;;;10.90
67353;BMP180;54238;52.278;21.056;2023-03-13T10:52:03;99444.80;;;11.00
67353;BMP180;54238;52.278;21.056;2023-03-13T10:54:33;99447.60;;;11.00
67353;BMP180;54238;52.278;21.056;2023-03-13T10:59:47;99411.00;;;11.04
67353;BMP180;54238;52.278;21.056;2023-03-13T11:02:37;99410.60;;;11.10
67353;BMP180;54238;52.278;21.056;2023-03-13T11:07:51;99419.00;;;11.38
67353;BMP180;54238;52.278;21.056;2023-03-13T11:12:51;99393.60;;;11.50
67353;BMP180;54238;52.278;21.056;2023-03-13T11:18:09;99386.20;;;11.70
67353;BMP180;54238;52.278;21.056;2023-03-13T11:20:45;99386.60;;;11.70
67353;BMP180;54238;52.278;21.056;2023-03-13T11:23:42;99382.60;;;11.78
67353;BMP180;54238;52.278;21.056;2023-03-13T11:26:57;99381.80;;;11.80
67353;BMP180;54238;52.278;21.056;2023-03-13T11:33:11;99354.60;;;12.22
67353;BMP180;54238;52.278;21.056;2023-03-13T11:35:59;99352.40;;;12.50
67353;BMP180;54238;52.278;21.056;2023-03-13T11:47:18;99318.20;;;13.40
67353;BMP180;54238;52.278;21.056;2023-03-13T11:56:46;99314.20;;;14.20
67353;BMP180;54238;52.278;21.056;2023-03-13T11:59:41;99303.60;;;14.20
67353;BMP180;54238;52.278;21.056;2023-03-13T12:02:31;99308.40;;;14.10
67353;BMP180;54238;52.278;21.056;2023-03-13T12:05:11;99313.80;;;14.10
67353;BMP180;54238;52.278;21.056;2023-03-13T12:08:17;99294.60;;;14.00
67353;BMP180;54238;52.278;21.056;2023-03-13T12:14:08;99293.60;;;13.60
67353;BMP180;54238;52.278;21.056;2023-03-13T12:19:20;99280.40;;;13.20
67353;BMP180;54238;52.278;21.056;2023-03-13T12:21:59;99290.60;;;13.10
67353;BMP180;54238;52.278;21.056;2023-03-13T12:24:41;99290.00;;;13.00
67353;BMP180;54238;52.278;21.056;2023-03-13T12:27:32;99285.80;;;12.90
67353;BMP180;54238;52.278;21.056;2023-03-13T12:32:39;99268.60;;;12.70
67353;BMP180;54238;52.278;21.056;2023-03-13T12:35:25;99269.00;;;12.60
67353;BMP180;54238;52.278;21.056;2023-03-13T12:38:19;99268.60;;;12.50
67353;BMP180;54238;52.278;21.056;2023-03-13T12:43:51;99259.00;;;12.32
67353;BMP180;54238;52.278;21.056;2023-03-13T12:52:26;99265.80;;;12.20
67353;BMP180;54238;52.278;21.056;2023-03-13T12:55:26;99254.00;;;12.10
67353;BMP180;54238;52.278;21.056;2023-03-13T13:00:53;99251.00;;;11.90
67353;BMP180;54238;52.278;21.056;2023-03-13T13:03:37;99245.40;;;11.86
67353;BMP180;54238;52.278;21.056;2023-03-13T13:06:11;99242.20;;;11.80
67353;BMP180;54238;52.278;21.056;2023-03-13T13:08:47;99239.20;;;11.70
67353;BMP180;54238;52.278;21.056;2023-03-13T13:16:55;99235.00;;;11.60
67353;BMP180;54238;52.278;21.056;2023-03-13T13:37:48;99196.40;;;11.30
67353;BMP180;54238;52.278;21.056;2023-03-13T13:42:58;99191.40;;;11.20
67353;BMP180;54238;52.278;21.056;2023-03-13T13:45:34;99188.80;;;11.14
67353;BMP180;54238;52.278;21.056;2023-03-13T13:48:33;99185.00;;;11.10
67353;BMP180;54238;52.278;21.056;2023-03-13T14:02:04;99181.60;;;10.80
67353;BMP180;54238;52.278;21.056;2023-03-13T14:05:13;99180.40;;;10.80
67353;BMP180;54238;52.278;21.056;2023-03-13T14:13:01;99161.20;;;10.62
67353;BMP180;54238;52.278;21.056;2023-03-13T14:15:31;99151.60;;;10.60
67353;BMP180;54238;52.278;21.056;2023-03-13T14:18:23;99153.80;;;10.60
67353;BMP180;54238;52.278;21.056;2023-03-13T14:21:06;99145.00;;;10.60
67353;BMP180;54238;52.278;21.056;2023-03-13T14:23:44;99142.40;;;10.60
67353;BMP180;54238;52.278;21.056;2023-03-13T14:26:24;99142.80;;;10.60
67353;BMP180;54238;52.278;21.056;2023-03-13T14:29:00;99138.60;;;10.60
67353;BMP180;54238;52.278;21.056;2023-03-13T14:34:02;99130.60;;;10.60
67353;BMP180;54238;52.278;21.056;2023-03-13T14:39:41;99113.40;;;10.60
67353;BMP180;54238;52.278;21.056;2023-03-13T14:42:13;99110.60;;;10.60
67353;BMP180;54238;52.278;21.056;2023-03-13T14:44:44;99107.20;;;10.60
67353;BMP180;54238;52.278;21.056;2023-03-13T14:47:25;99092.60;;;10.60
67353;BMP180;54238;52.278;21.056;2023-03-13T14:50:03;99088.40;;;10.60
67353;BMP180;54238;52.278;21.056;2023-03-13T14:52:48;99079.60;;;10.60
67353;BMP180;54238;52.278;21.056;2023-03-13T14:58:05;99064.20;;;10.60
67353;BMP180;54238;52.278;21.056;2023-03-13T15:00:52;99058.00;;;10.50
67353;BMP180;54238;52.278;21.056;2023-03-13T15:03:26;99070.80;;;10.50
67353;BMP180;54238;52.278;21.056;2023-03-13T15:08:42;99072.40;;;10.50
67353;BMP180;54238;52.278;21.056;2023-03-13T15:11:31;99062.40;;;10.50
67353;BMP180;54238;52.278;21.056;2023-03-13T15:14:01;99060.00;;;10.44
67353;BMP180;54238;52.278;21.056;2023-03-13T15:16:33;99064.60;;;10.40
67353;BMP180;54238;52.278;21.056;2023-03-13T15:19:00;99064.20;;;10.40
67353;BMP180;54238;52.278;21.056;2023-03-13T15:21:33;99068.40;;;10.40
67353;BMP180;54238;52.278;21.056;2023-03-13T15:24:12;99059.60;;;10.40
67353;BMP180;54238;52.278;21.056;2023-03-13T15:26:45;99053.60;;;10.40
67353;BMP180;54238;52.278;21.056;2023-03-13T15:29:12;99051.20;;;10.40
67353;BMP180;54238;52.278;21.056;2023-03-13T15:31:42;99057.00;;;10.38
67353;BMP180;54238;52.278;21.056;2023-03-13T15:34:14;99050.40;;;10.36
67353;BMP180;54238;52.278;21.056;2023-03-13T15:36:42;99042.00;;;10.30
67353;BMP180;54238;52.278;21.056;2023-03-13T15:39:16;99040.80;;;10.30
67353;BMP180;54238;52.278;21.056;2023-03-13T15:41:50;99047.60;;;10.30
67353;BMP180;54238;52.278;21.056;2023-03-13T15:44:22;99040.80;;;10.30
67353;BMP180;54238;52.278;21.056;2023-03-13T15:46:49;99042.20;;;10.30
67353;BMP180;54238;52.278;21.056;2023-03-13T15:49:20;99045.80;;;10.30
67353;BMP180;54238;52.278;21.056;2023-03-13T15:51:52;99046.20;;;10.30
67353;BMP180;54238;52.278;21.056;2023-03-13T15:54:26;99039.40;;;10.30
67353;BMP180;54238;52.278;21.056;2023-03-13T15:56:53;99032.60;;;10.32
67353;BMP180;54238;52.278;21.056;2023-03-13T15:59:20;99040.00;;;10.38
67353;BMP180;54238;52.278;21.056;2023-03-13T16:01:50;99044.80;;;10.40
67353;BMP180;54238;52.278;21.056;2023-03-13T16:04:17;99034.40;;;10.40
67353;BMP180;54238;52.278;21.056;2023-03-13T16:06:45;99054.80;;;10.40
67353;BMP180;54238;52.278;21.056;2023-03-13T16:09:14;99054.60;;;10.40
67353;BMP180;54238;52.278;21.056;2023-03-13T16:11:45;99037.60;;;10.40
67353;BMP180;54238;52.278;21.056;2023-03-13T16:14:17;99032.80;;;10.40
67353;BMP180;54238;52.278;21.056;2023-03-13T16:16:51;99034.00;;;10.40
67353;BMP180;54238;52.278;21.056;2023-03-13T16:19:20;99032.40;;;10.40
67353;BMP180;54238;52.278;21.056;2023-03-13T16:21:49;99032.80;;;10.40
67353;BMP180;54238;52.278;21.056;2023-03-13T16:24:18;99044.80;;;10.40
67353;BMP180;54238;52.278;21.056;2023-03-13T16:26:48;99034.40;;;10.38
67353;BMP180;54238;52.278;21.056;2023-03-13T16:29:16;99034.00;;;10.40
67353;BMP180;54238;52.278;21.056;2023-03-13T16:31:47;99048.20;;;10.38
67353;BMP180;54238;52.278;21.056;2023-03-13T16:34:15;99036.00;;;10.34
67353;BMP180;54238;52.278;21.056;2023-03-13T16:36:42;99048.40;;;10.32
67353;BMP180;54238;52.278;21.056;2023-03-13T16:39:17;99052.60;;;10.30
67353;BMP180;54238;52.278;21.056;2023-03-13T16:41:44;99037.80;;;10.30
67353;BMP180;54238;52.278;21.056;2023-03-13T16:44:11;99045.60;;;10.30